createdAt,value
2023-01-26T00:04:45.314Z,3.83
2023-01-26T00:09:48.104Z,3.40
2023-01-26T00:14:50.960Z,3.47
2023-01-26T00:19:57.082Z,3.05
2023-01-26T00:24:59.892Z,3.75
2023-01-26T00:30:03.425Z,3.83
2023-01-26T00:35:08.256Z,3.80
2023-01-26T00:40:12.424Z,2.65
2023-01-26T00:45:15.479Z,3.70
2023-01-26T00:50:19.873Z,3.47
2023-01-26T00:55:22.709Z,4.18
2023-01-26T01:00:25.560Z,4.32
2023-01-26T01:05:31.654Z,3.72
2023-01-26T01:10:34.453Z,3.92
2023-01-26T01:15:39.349Z,2.90
2023-01-26T01:20:43.608Z,3.17
2023-01-26T01:25:47.087Z,3.22
2023-01-26T01:30:49.981Z,3.80
2023-01-26T01:36:01.445Z,3.17
2023-01-26T01:41:04.502Z,3.50
2023-01-26T01:46:12.934Z,3.50
2023-01-26T01:51:21.058Z,2.85
2023-01-26T01:56:27.096Z,4.00
2023-01-26T02:01:30.341Z,3.47
2023-01-26T02:06:38.997Z,4.57
2023-01-26T02:11:46.105Z,3.42
2023-01-26T02:16:48.935Z,2.90
2023-01-26T02:21:55.473Z,2.92
2023-01-26T02:26:59.647Z,2.75
2023-01-26T02:32:02.509Z,3.70
2023-01-26T02:37:05.530Z,2.90
2023-01-26T02:48:49.478Z,3.70
2023-01-26T02:53:52.365Z,2.88
2023-01-26T02:58:55.205Z,3.78
2023-01-26T03:03:59.362Z,3.70
2023-01-26T03:09:02.188Z,2.88
2023-01-26T03:14:04.988Z,2.88
2023-01-26T03:19:29.924Z,3.53
2023-01-26T03:24:50.178Z,2.97
2023-01-26T03:29:53.063Z,3.92
2023-01-26T03:34:57.309Z,2.88
2023-01-26T03:40:17.712Z,2.97
2023-01-26T03:45:37.980Z,3.40
2023-01-26T03:50:59.654Z,4.28
2023-01-26T03:56:18.197Z,3.28
2023-01-26T04:01:26.041Z,4.63
2023-01-26T04:06:47.996Z,3.17
2023-01-26T04:11:50.909Z,3.67
2023-01-26T04:17:11.429Z,3.58
2023-01-26T04:22:15.633Z,4.28
2023-01-26T04:27:18.488Z,2.78
2023-01-26T04:32:21.318Z,3.88
2023-01-26T04:37:25.593Z,2.88
2023-01-26T04:42:28.503Z,3.65
2023-01-26T04:47:31.328Z,3.10
2023-01-26T04:52:35.567Z,3.25
2023-01-26T04:57:38.421Z,3.78
2023-01-26T05:02:41.309Z,3.22
2023-01-26T05:07:45.498Z,3.70
2023-01-26T05:12:48.383Z,3.80
2023-01-26T05:17:51.564Z,3.70
2023-01-26T05:22:55.745Z,3.30
2023-01-26T05:27:58.819Z,3.55
2023-01-26T05:33:03.005Z,3.13
2023-01-26T05:38:07.173Z,3.55
2023-01-26T05:43:10.295Z,3.30
2023-01-26T05:48:13.160Z,3.20
2023-01-26T05:53:17.308Z,3.88
2023-01-26T05:58:20.169Z,3.55
2023-01-26T06:03:22.994Z,3.35
2023-01-26T06:08:27.121Z,3.20
2023-01-26T06:13:30.792Z,3.22
2023-01-26T06:18:33.648Z,3.15
2023-01-26T06:23:37.854Z,3.67
2023-01-26T06:28:40.653Z,3.92
2023-01-26T06:33:43.526Z,3.00
2023-01-26T06:38:49.193Z,3.67
2023-01-26T06:43:52.063Z,3.50
2023-01-26T06:48:54.915Z,3.08
2023-01-26T06:53:59.665Z,3.28
2023-01-26T06:59:02.520Z,3.20
2023-01-26T07:04:05.532Z,3.63
2023-01-26T07:09:09.689Z,3.00
2023-01-26T07:14:12.484Z,2.63
2023-01-26T07:19:15.343Z,2.65
2023-01-26T07:24:21.738Z,3.47
2023-01-26T07:29:24.686Z,3.78
2023-01-26T07:34:27.498Z,8.80
2023-01-26T07:39:31.683Z,3.00
2023-01-26T07:44:34.592Z,3.13
2023-01-26T07:49:37.475Z,3.45
2023-01-26T07:54:41.673Z,6.82
2023-01-26T07:59:44.497Z,3.85
2023-01-26T08:04:47.411Z,4.07
2023-01-26T08:09:51.595Z,3.92
2023-01-26T08:14:54.469Z,3.88
2023-01-26T08:19:57.347Z,4.65
2023-01-26T08:25:01.523Z,4.20
2023-01-26T08:30:04.703Z,4.97
2023-01-26T08:35:08.331Z,3.75
2023-01-26T08:40:14.227Z,4.07
2023-01-26T08:45:17.654Z,8.13
2023-01-26T08:50:20.486Z,4.32
2023-01-26T08:55:24.757Z,3.95
2023-01-26T09:00:28.289Z,5.30
2023-01-26T09:05:33.954Z,6.00
2023-01-26T09:10:39.924Z,4.03
2023-01-26T09:15:42.789Z,6.47
2023-01-26T09:20:46.007Z,4.72
2023-01-26T09:25:55.071Z,4.07
2023-01-26T09:30:58.065Z,3.88
2023-01-26T09:36:04.892Z,4.82
2023-01-26T09:41:30.602Z,4.65
2023-01-26T09:46:44.679Z,6.38
2023-01-26T09:51:55.648Z,3.75
2023-01-26T09:57:02.629Z,5.85
2023-01-26T10:02:21.540Z,5.28
2023-01-26T10:07:24.445Z,3.30
2023-01-26T10:12:32.052Z,5.68
2023-01-26T10:17:37.684Z,3.90
2023-01-26T10:22:45.649Z,3.58
2023-01-26T10:27:49.831Z,4.85
2023-01-26T10:32:53.816Z,5.03
2023-01-26T10:37:57.995Z,3.50
2023-01-26T10:43:02.135Z,2.90
2023-01-26T10:48:13.593Z,2.80
2023-01-26T10:53:19.081Z,3.75
2023-01-26T10:58:48.475Z,3.70
2023-01-26T11:04:05.045Z,2.95
2023-01-26T11:09:17.888Z,3.60
2023-01-26T11:14:22.440Z,2.92
2023-01-26T11:19:42.005Z,4.20
2023-01-26T11:24:53.865Z,3.00
2023-01-26T11:30:18.774Z,3.65
2023-01-26T11:35:30.997Z,3.30
2023-01-26T11:40:41.838Z,3.53
2023-01-26T11:46:02.421Z,2.58
2023-01-26T11:51:15.719Z,2.63
2023-01-26T11:56:31.628Z,2.38
2023-01-26T12:01:41.152Z,2.25
2023-01-26T12:06:46.856Z,2.38
2023-01-26T12:11:56.832Z,2.67
2023-01-26T12:17:28.642Z,3.17
2023-01-26T12:22:35.824Z,1.85
2023-01-26T12:27:44.596Z,3.25
2023-01-26T12:32:48.809Z,2.25
2023-01-26T12:38:12.128Z,2.17
2023-01-26T12:43:32.338Z,2.78
2023-01-26T12:48:42.040Z,3.58
2023-01-26T12:53:55.610Z,2.22
2023-01-26T12:59:01.575Z,2.67
2023-01-26T13:04:10.092Z,2.58
2023-01-26T13:09:22.939Z,1.92
2023-01-26T13:14:37.921Z,2.15
2023-01-26T13:19:54.870Z,2.50
2023-01-26T13:24:58.941Z,2.05
2023-01-26T13:30:02.214Z,2.60
2023-01-26T13:35:13.810Z,2.33
2023-01-26T13:40:22.397Z,2.05
2023-01-26T13:45:32.899Z,2.42
2023-01-26T13:50:38.674Z,2.45
2023-01-26T13:55:42.212Z,2.83
2023-01-26T14:00:59.473Z,2.28
2023-01-26T14:06:08.996Z,3.35
2023-01-26T14:11:19.662Z,2.45
2023-01-26T14:16:26.472Z,2.60
2023-01-26T14:21:32.459Z,1.98
2023-01-26T14:26:35.582Z,1.90
2023-01-26T14:31:38.636Z,1.85
2023-01-26T14:36:42.883Z,2.10
2023-01-26T14:41:46.820Z,2.75
2023-01-26T14:46:58.337Z,2.40
2023-01-26T14:52:02.898Z,2.30
2023-01-26T14:57:09.512Z,1.83
2023-01-26T15:02:17.238Z,1.85
2023-01-26T15:07:36.817Z,2.17
2023-01-26T15:12:39.641Z,2.15
2023-01-26T15:17:43.860Z,1.80
2023-01-26T15:22:51.826Z,1.58
2023-01-26T15:27:58.796Z,2.20
2023-01-26T15:33:02.331Z,1.70
2023-01-26T15:38:09.824Z,1.80
2023-01-26T15:43:13.748Z,2.83
2023-01-26T15:48:16.607Z,1.80
2023-01-26T15:53:22.690Z,1.98
2023-01-26T15:58:26.058Z,1.70
2023-01-26T16:03:29.046Z,2.67
2023-01-26T16:08:33.210Z,1.65
2023-01-26T16:13:36.049Z,1.73
2023-01-26T16:18:38.882Z,1.92
2023-01-26T16:23:43.079Z,2.85
2023-01-26T16:28:46.596Z,1.77
2023-01-26T16:33:50.514Z,1.40
2023-01-26T16:38:54.855Z,2.03
2023-01-26T16:43:59.372Z,4.72
2023-01-26T16:49:02.172Z,6.70
2023-01-26T16:54:06.711Z,7.75
2023-01-26T16:59:09.529Z,5.72
2023-01-26T17:04:12.442Z,3.70
2023-01-26T17:09:16.624Z,3.58
2023-01-26T17:14:19.538Z,3.35
2023-01-26T17:19:22.386Z,2.58
2023-01-26T17:24:26.770Z,4.15
2023-01-26T17:29:29.758Z,4.85
2023-01-26T17:34:32.643Z,2.45
2023-01-26T17:39:36.821Z,2.72
2023-01-26T17:44:40.038Z,2.70
2023-01-26T17:49:42.860Z,2.20
2023-01-26T17:54:47.157Z,2.42
2023-01-26T17:59:50.072Z,5.75
2023-01-26T18:04:52.877Z,35.60
2023-01-26T18:09:57.110Z,35.47
2023-01-26T18:15:00.032Z,46.03
2023-01-26T18:20:02.890Z,38.63
2023-01-26T18:25:08.117Z,34.85
2023-01-26T18:30:12.544Z,38.00
2023-01-26T18:35:15.379Z,38.20
2023-01-26T18:40:20.354Z,30.75
2023-01-26T18:45:23.690Z,30.90
2023-01-26T18:50:26.566Z,30.80
2023-01-26T18:55:34.378Z,27.15
2023-01-26T19:00:37.307Z,23.60
2023-01-26T19:05:40.135Z,25.23
2023-01-26T19:10:44.427Z,27.60
2023-01-26T19:15:47.617Z,21.98
2023-01-26T19:20:56.436Z,24.05
2023-01-26T19:26:00.738Z,22.02
2023-01-26T19:31:04.485Z,21.73
2023-01-26T19:36:08.470Z,18.00
2023-01-26T19:41:13.307Z,17.38
2023-01-26T19:46:17.161Z,19.30
2023-01-26T19:51:21.510Z,16.23
2023-01-26T19:56:28.022Z,16.90
2023-01-26T20:01:32.687Z,19.73
2023-01-26T20:06:36.877Z,17.02
2023-01-26T20:11:41.036Z,16.27
2023-01-26T20:16:43.901Z,10.98
2023-01-26T20:21:46.812Z,15.50
2023-01-26T20:26:51.460Z,12.50
2023-01-26T20:31:54.584Z,11.98
2023-01-26T20:37:00.140Z,14.02
2023-01-26T20:42:04.539Z,10.48
2023-01-26T20:47:07.414Z,13.75
2023-01-26T20:52:10.298Z,10.10
2023-01-26T20:57:14.621Z,9.95
2023-01-26T21:02:17.694Z,8.70
2023-01-26T21:07:21.047Z,9.43
2023-01-26T21:12:25.241Z,7.30
2023-01-26T21:17:28.078Z,8.80
2023-01-26T21:22:30.895Z,10.18
2023-01-26T21:27:35.092Z,8.82
2023-01-26T21:32:37.971Z,7.80
2023-01-26T21:37:40.775Z,8.73
2023-01-26T21:42:45.006Z,8.80
2023-01-26T21:48:07.960Z,11.32
2023-01-26T21:53:11.138Z,13.35
2023-01-26T21:58:32.625Z,7.78
2023-01-26T22:03:36.749Z,11.23
2023-01-26T22:08:39.660Z,6.93
2023-01-26T22:13:44.887Z,5.13
2023-01-26T22:18:49.474Z,9.52
2023-01-26T22:23:52.296Z,10.60
2023-01-26T22:28:58.270Z,8.45
2023-01-26T22:34:02.205Z,6.10
2023-01-26T22:39:05.299Z,4.25
2023-01-26T22:44:09.892Z,5.18
2023-01-26T22:49:12.792Z,5.57
2023-01-26T22:54:15.652Z,3.88
2023-01-26T22:59:20.072Z,5.60
2023-01-26T23:04:22.916Z,5.93
2023-01-26T23:09:25.816Z,6.80
2023-01-26T23:14:30.913Z,5.85
2023-01-26T23:19:34.982Z,3.83
2023-01-26T23:24:37.780Z,4.93
2023-01-26T23:29:41.998Z,5.03
2023-01-26T23:34:44.821Z,4.53
2023-01-26T23:39:47.672Z,5.13
2023-01-26T23:44:52.099Z,4.07
2023-01-26T23:49:54.896Z,3.67
2023-01-26T23:54:57.679Z,3.70
